createdAt,value
2023-11-07T00:00:20.268Z,8.34
2023-11-07T00:02:49.642Z,8.15
2023-11-07T00:05:17.743Z,8.19
2023-11-07T00:07:45.511Z,8.31
2023-11-07T00:10:14.616Z,8.29
2023-11-07T00:12:42.705Z,8.30
2023-11-07T00:15:11.370Z,8.27
2023-11-07T00:17:39.213Z,8.27
2023-11-07T00:20:09.401Z,8.34
2023-11-07T00:22:37.147Z,8.29
2023-11-07T00:25:05.183Z,8.25
2023-11-07T00:27:34.849Z,8.30
2023-11-07T00:30:02.690Z,8.32
2023-11-07T00:32:30.617Z,8.26
2023-11-07T00:34:59.090Z,8.26
2023-11-07T00:37:26.857Z,8.27
2023-11-07T00:39:54.505Z,8.30
2023-11-07T00:42:22.238Z,8.29
2023-11-07T00:44:51.240Z,8.31
2023-11-07T00:47:19.023Z,8.30
2023-11-07T00:49:46.682Z,8.44
2023-11-07T00:52:14.699Z,8.39
2023-11-07T00:54:42.338Z,8.36
2023-11-07T00:57:10.742Z,8.33
2023-11-07T00:59:38.485Z,8.23
2023-11-07T01:02:08.040Z,8.23
2023-11-07T01:04:35.763Z,8.26
2023-11-07T01:07:03.926Z,8.31
2023-11-07T01:09:31.601Z,8.23
2023-11-07T01:11:59.319Z,8.18
2023-11-07T01:14:27.078Z,8.28
2023-11-07T01:16:54.737Z,8.21
2023-11-07T01:19:24.176Z,8.28
2023-11-07T01:21:51.917Z,8.34
2023-11-07T01:24:19.702Z,8.38
2023-11-07T01:26:47.601Z,8.32
2023-11-07T01:29:16.364Z,8.27
2023-11-07T01:31:44.081Z,8.29
2023-11-07T01:34:11.891Z,8.39
2023-11-07T01:36:41.011Z,8.42
2023-11-07T01:39:09.416Z,8.42
2023-11-07T01:41:37.321Z,8.48
2023-11-07T01:44:05.040Z,8.50
2023-11-07T01:46:33.997Z,8.46
2023-11-07T01:49:01.763Z,8.54
2023-11-07T01:51:29.586Z,8.59
2023-11-07T01:53:59.058Z,8.56
2023-11-07T01:56:29.237Z,8.54
2023-11-07T01:58:59.716Z,8.66
2023-11-07T02:01:28.966Z,8.80
2023-11-07T02:03:57.306Z,8.81
2023-11-07T02:06:25.860Z,8.76
2023-11-07T02:08:53.657Z,8.77
2023-11-07T02:11:22.771Z,8.76
2023-11-07T02:13:50.794Z,8.54
2023-11-07T02:16:19.053Z,8.80
2023-11-07T02:18:46.913Z,8.75
2023-11-07T02:21:14.784Z,8.73
2023-11-07T02:23:44.012Z,8.76
2023-11-07T02:26:11.734Z,8.72
2023-11-07T02:28:40.038Z,8.69
2023-11-07T02:31:08.229Z,8.82
2023-11-07T02:33:38.745Z,8.82
2023-11-07T02:36:07.261Z,8.87
2023-11-07T02:38:35.006Z,8.86
2023-11-07T02:41:04.897Z,8.87
2023-11-07T02:43:32.625Z,8.87
2023-11-07T02:46:00.665Z,8.85
2023-11-07T02:48:28.443Z,8.82
2023-11-07T02:50:56.442Z,8.82
2023-11-07T02:53:24.182Z,8.79
2023-11-07T02:55:51.861Z,8.73
2023-11-07T02:58:20.917Z,8.75
2023-11-07T03:00:48.544Z,8.75
2023-11-07T03:03:16.862Z,8.73
2023-11-07T03:05:52.796Z,8.72
2023-11-07T03:08:20.576Z,8.75
2023-11-07T03:10:48.254Z,8.78
2023-11-07T03:13:15.906Z,8.77
2023-11-07T03:15:45.426Z,8.84
2023-11-07T03:18:13.252Z,8.84
2023-11-07T03:20:42.173Z,8.84
2023-11-07T03:23:11.243Z,8.83
2023-11-07T03:25:38.884Z,8.77
2023-11-07T03:28:06.551Z,8.73
2023-11-07T03:30:34.571Z,8.73
2023-11-07T03:33:02.331Z,8.72
2023-11-07T03:35:31.250Z,8.72
2023-11-07T03:37:59.093Z,8.71
2023-11-07T03:40:28.192Z,8.74
2023-11-07T03:42:55.838Z,8.76
2023-11-07T03:45:23.539Z,8.76
2023-11-07T03:47:51.276Z,8.81
2023-11-07T03:50:19.001Z,8.78
2023-11-07T03:52:46.627Z,8.83
2023-11-07T03:55:14.354Z,8.80
2023-11-07T03:57:43.433Z,8.86
2023-11-07T04:00:11.824Z,8.82
2023-11-07T04:02:39.848Z,8.70
2023-11-07T04:05:08.574Z,8.85
2023-11-07T04:07:36.290Z,8.82
2023-11-07T04:10:06.806Z,8.82
2023-11-07T04:12:34.642Z,8.78
2023-11-07T04:15:07.690Z,8.84
2023-11-07T04:17:36.011Z,8.84
2023-11-07T04:20:04.505Z,8.85
2023-11-07T04:22:32.280Z,8.84
2023-11-07T04:25:01.365Z,8.90
2023-11-07T04:27:29.022Z,8.87
2023-11-07T04:29:56.795Z,8.85
2023-11-07T04:32:25.906Z,8.84
2023-11-07T04:34:53.714Z,8.80
2023-11-07T04:37:21.455Z,8.85
2023-11-07T04:39:49.597Z,8.82
2023-11-07T04:42:17.342Z,8.84
2023-11-07T04:44:45.611Z,8.87
2023-11-07T04:47:13.748Z,8.87
2023-11-07T04:49:44.167Z,8.83
2023-11-07T04:52:12.182Z,8.86
2023-11-07T04:54:40.042Z,8.86
2023-11-07T04:57:08.208Z,8.88
2023-11-07T04:59:38.063Z,8.80
2023-11-07T05:02:07.457Z,8.95
2023-11-07T05:04:36.204Z,8.94
2023-11-07T05:07:06.063Z,8.93
2023-11-07T05:09:33.720Z,8.91
2023-11-07T05:12:03.824Z,8.95
2023-11-07T05:14:31.729Z,8.94
2023-11-07T05:16:59.899Z,8.95
2023-11-07T05:19:27.935Z,9.01
2023-11-07T05:21:56.156Z,8.99
2023-11-07T05:24:25.488Z,8.98
2023-11-07T05:26:53.435Z,9.02
2023-11-07T05:29:21.081Z,9.01
2023-11-07T05:31:49.014Z,9.03
2023-11-07T05:34:17.173Z,9.01
2023-11-07T05:36:44.911Z,8.97
2023-11-07T05:39:12.546Z,8.81
2023-11-07T05:41:41.731Z,9.00
2023-11-07T05:44:09.828Z,8.98
2023-11-07T05:46:37.626Z,8.98
2023-11-07T05:49:05.489Z,9.04
2023-11-07T05:51:33.403Z,9.06
2023-11-07T05:54:01.098Z,9.01
2023-11-07T05:56:28.940Z,9.03
2023-11-07T05:58:57.970Z,9.01
2023-11-07T06:01:25.836Z,9.01
2023-11-07T06:03:55.580Z,8.98
2023-11-07T06:06:25.436Z,8.95
2023-11-07T06:08:54.732Z,8.94
2023-11-07T06:11:22.816Z,8.89
2023-11-07T06:13:50.444Z,8.88
2023-11-07T06:16:20.000Z,8.88
2023-11-07T06:18:47.733Z,8.90
2023-11-07T06:21:15.860Z,8.76
2023-11-07T06:23:44.649Z,8.86
2023-11-07T06:26:12.408Z,8.86
2023-11-07T06:28:40.049Z,8.84
2023-11-07T06:31:08.079Z,8.77
2023-11-07T06:33:37.213Z,8.80
2023-11-07T06:36:05.210Z,8.82
2023-11-07T06:38:33.033Z,8.82
2023-11-07T06:41:00.717Z,8.86
2023-11-07T06:43:28.389Z,8.87
2023-11-07T06:45:56.963Z,8.80
2023-11-07T06:48:25.112Z,8.88
2023-11-07T06:50:55.555Z,8.91
2023-11-07T06:53:23.245Z,8.90
2023-11-07T06:55:50.975Z,8.94
2023-11-07T06:58:18.677Z,8.93
2023-11-07T07:00:46.329Z,8.93
2023-11-07T07:03:14.326Z,8.89
2023-11-07T07:05:42.509Z,8.87
2023-11-07T07:08:12.053Z,8.85
2023-11-07T07:10:41.334Z,8.83
2023-11-07T07:13:09.414Z,8.79
2023-11-07T07:15:38.166Z,8.80
2023-11-07T07:18:07.802Z,8.79
2023-11-07T07:20:37.857Z,8.78
2023-11-07T07:23:07.234Z,8.77
2023-11-07T07:25:37.503Z,8.70
2023-11-07T07:28:05.892Z,8.65
2023-11-07T07:30:33.914Z,8.68
2023-11-07T07:33:03.100Z,8.63
2023-11-07T07:35:34.156Z,8.65
2023-11-07T07:38:04.395Z,8.68
2023-11-07T07:40:32.849Z,8.71
2023-11-07T07:43:10.873Z,8.71
2023-11-07T07:45:40.643Z,8.75
2023-11-07T07:48:09.348Z,8.82
2023-11-07T07:50:42.608Z,8.87
2023-11-07T07:53:11.842Z,8.93
2023-11-07T07:55:45.147Z,9.02
2023-11-07T07:58:20.136Z,9.11
2023-11-07T08:00:51.145Z,9.20
2023-11-07T08:03:19.221Z,9.22
2023-11-07T08:05:47.303Z,9.26
2023-11-07T08:08:16.132Z,9.25
2023-11-07T08:10:48.820Z,9.29
2023-11-07T08:13:19.946Z,9.32
2023-11-07T08:15:51.176Z,9.30
2023-11-07T08:18:19.488Z,9.28
2023-11-07T08:20:47.370Z,9.39
2023-11-07T08:23:15.076Z,9.39
2023-11-07T08:25:42.781Z,9.42
2023-11-07T08:28:11.251Z,9.44
2023-11-07T08:30:45.597Z,9.49
2023-11-07T08:33:14.707Z,9.45
2023-11-07T08:35:42.715Z,9.47
2023-11-07T08:38:10.452Z,9.45
2023-11-07T08:40:38.229Z,9.49
2023-11-07T08:43:06.165Z,9.51
2023-11-07T08:45:34.854Z,9.56
2023-11-07T08:48:04.250Z,9.52
2023-11-07T08:50:33.882Z,9.55
2023-11-07T08:53:06.166Z,9.50
2023-11-07T08:55:34.448Z,9.55
2023-11-07T08:58:02.137Z,9.60
2023-11-07T09:00:30.709Z,9.59
2023-11-07T09:02:58.826Z,9.59
2023-11-07T09:05:28.852Z,9.73
2023-11-07T09:07:56.843Z,9.78
2023-11-07T09:10:24.546Z,9.80
2023-11-07T09:12:52.470Z,9.71
2023-11-07T09:15:22.685Z,9.66
2023-11-07T09:17:50.480Z,9.66
2023-11-07T09:20:18.275Z,9.72
2023-11-07T09:22:47.937Z,9.72
2023-11-07T09:25:15.580Z,9.66
2023-11-07T09:27:43.742Z,9.69
2023-11-07T09:30:13.246Z,9.71
2023-11-07T09:32:43.874Z,9.77
2023-11-07T09:35:12.358Z,9.70
2023-11-07T09:37:42.149Z,9.66
2023-11-07T09:40:21.885Z,9.66
2023-11-07T09:42:52.472Z,9.71
2023-11-07T09:45:22.347Z,9.77
2023-11-07T09:47:51.796Z,9.76
2023-11-07T09:50:21.378Z,9.75
2023-11-07T09:52:50.551Z,9.77
2023-11-07T09:55:19.782Z,9.74
2023-11-07T09:57:58.528Z,9.75
2023-11-07T10:00:35.036Z,9.83
2023-11-07T10:03:03.293Z,9.45
2023-11-07T10:05:33.097Z,9.87
2023-11-07T10:08:00.835Z,9.88
2023-11-07T10:10:29.836Z,9.98
2023-11-07T10:13:09.022Z,10.03
2023-11-07T10:15:37.196Z,10.10
2023-11-07T10:18:07.624Z,10.13
2023-11-07T10:20:36.447Z,10.29
2023-11-07T10:23:04.611Z,10.40
2023-11-07T10:25:35.085Z,10.17
2023-11-07T10:28:04.527Z,10.16
2023-11-07T10:30:36.754Z,10.02
2023-11-07T10:33:05.878Z,10.42
2023-11-07T10:35:33.836Z,10.50
2023-11-07T10:38:15.771Z,10.23
2023-11-07T10:40:44.938Z,10.32
2023-11-07T10:43:12.671Z,10.40
2023-11-07T10:45:42.549Z,10.49
2023-11-07T10:48:10.846Z,10.60
2023-11-07T10:50:40.064Z,10.50
2023-11-07T10:53:07.811Z,10.63
2023-11-07T10:55:37.289Z,10.68
2023-11-07T10:58:10.782Z,10.56
2023-11-07T11:00:39.480Z,10.42
2023-11-07T11:03:13.472Z,10.58
2023-11-07T11:05:45.322Z,10.73
2023-11-07T11:08:17.312Z,10.75
2023-11-07T11:10:45.814Z,10.61
2023-11-07T11:13:17.118Z,10.49
2023-11-07T11:15:47.597Z,10.48
2023-11-07T11:18:24.306Z,10.51
2023-11-07T11:21:03.351Z,10.54
2023-11-07T11:23:41.827Z,10.76
2023-11-07T11:26:25.293Z,11.15
2023-11-07T11:28:54.380Z,11.48
2023-11-07T11:31:23.178Z,11.54
2023-11-07T11:34:23.227Z,11.51
2023-11-07T11:36:55.225Z,11.38
2023-11-07T11:39:44.476Z,11.17
2023-11-07T11:42:12.886Z,11.12
2023-11-07T11:44:42.066Z,11.14
2023-11-07T11:47:12.957Z,11.21
2023-11-07T11:50:16.038Z,11.47
2023-11-07T11:52:43.794Z,11.58
2023-11-07T11:55:14.185Z,11.36
2023-11-07T11:58:25.446Z,11.30
2023-11-07T12:00:56.089Z,11.12
2023-11-07T12:03:25.297Z,11.17
2023-11-07T12:06:04.408Z,11.52
2023-11-07T12:08:40.598Z,11.44
2023-11-07T12:11:09.092Z,11.65
2023-11-07T12:13:36.833Z,11.80
2023-11-07T12:16:21.996Z,11.69
2023-11-07T12:18:52.423Z,11.78
2023-11-07T12:21:25.939Z,11.45
2023-11-07T12:23:54.663Z,11.23
2023-11-07T12:26:22.765Z,11.17
2023-11-07T12:28:52.364Z,11.35
2023-11-07T12:31:25.720Z,11.26
2023-11-07T12:33:54.089Z,11.36
2023-11-07T12:36:22.120Z,11.15
2023-11-07T12:38:50.438Z,11.17
2023-11-07T12:41:18.314Z,11.19
2023-11-07T12:43:47.495Z,11.24
2023-11-07T12:46:17.732Z,11.18
2023-11-07T12:48:47.144Z,11.27
2023-11-07T12:51:22.519Z,11.38
2023-11-07T12:53:51.477Z,11.32
2023-11-07T12:56:20.891Z,11.40
2023-11-07T12:58:49.496Z,11.44
2023-11-07T13:01:17.631Z,11.30
2023-11-07T13:03:47.026Z,11.42
2023-11-07T13:06:21.071Z,11.21
2023-11-07T13:08:49.045Z,11.49
2023-11-07T13:11:18.482Z,11.52
2023-11-07T13:13:48.242Z,11.47
2023-11-07T13:16:17.633Z,11.38
2023-11-07T13:18:47.796Z,11.58
2023-11-07T13:21:16.176Z,11.50
2023-11-07T13:23:44.168Z,11.50
2023-11-07T13:26:12.275Z,11.40
2023-11-07T13:28:42.138Z,11.37
2023-11-07T13:31:11.871Z,11.36
2023-11-07T13:33:39.790Z,11.26
2023-11-07T13:36:09.758Z,11.32
2023-11-07T13:38:37.816Z,11.18
2023-11-07T13:41:05.899Z,11.11
2023-11-07T13:43:33.710Z,11.21
2023-11-07T13:46:01.443Z,11.13
2023-11-07T13:48:32.328Z,11.28
2023-11-07T13:51:00.183Z,11.02
2023-11-07T13:53:30.255Z,11.24
2023-11-07T13:55:57.960Z,11.35
2023-11-07T13:58:25.665Z,11.45
2023-11-07T14:00:53.577Z,11.41
2023-11-07T14:03:22.449Z,11.24
2023-11-07T14:05:50.232Z,11.28
2023-11-07T14:08:17.943Z,11.22
2023-11-07T14:10:48.171Z,11.15
2023-11-07T14:13:15.916Z,11.63
2023-11-07T14:15:43.568Z,11.60
2023-11-07T14:18:16.907Z,11.74
2023-11-07T14:20:52.899Z,11.59
2023-11-07T14:23:20.825Z,11.33
2023-11-07T14:25:49.941Z,11.31
2023-11-07T14:28:17.737Z,11.12
2023-11-07T14:30:45.918Z,11.14
2023-11-07T14:33:14.497Z,11.21
2023-11-07T14:35:42.646Z,11.11
2023-11-07T14:38:10.561Z,11.03
2023-11-07T14:40:38.455Z,10.86
2023-11-07T14:43:14.664Z,11.09
2023-11-07T14:45:45.186Z,11.03
2023-11-07T14:48:15.525Z,10.93
2023-11-07T14:50:44.448Z,10.82
2023-11-07T14:53:15.942Z,10.68
2023-11-07T14:55:44.183Z,10.72
2023-11-07T14:58:16.987Z,10.71
2023-11-07T15:00:44.859Z,10.60
2023-11-07T15:03:12.902Z,10.47
2023-11-07T15:05:43.193Z,10.45
2023-11-07T15:08:11.686Z,10.51
2023-11-07T15:10:39.823Z,10.37
2023-11-07T15:13:09.082Z,10.26
2023-11-07T15:15:38.241Z,10.30
2023-11-07T15:18:06.646Z,10.27
2023-11-07T15:20:34.744Z,10.15
2023-11-07T15:23:03.743Z,10.11
2023-11-07T15:25:34.550Z,10.11
2023-11-07T15:28:02.947Z,9.92
2023-11-07T15:30:31.725Z,9.95
2023-11-07T15:33:02.337Z,9.93
2023-11-07T15:35:36.088Z,9.77
2023-11-07T15:38:07.229Z,9.78
2023-11-07T15:40:34.309Z,9.73
2023-11-07T15:43:02.072Z,9.68
2023-11-07T15:45:32.330Z,9.77
2023-11-07T15:48:01.679Z,9.71
2023-11-07T15:50:29.517Z,9.67
2023-11-07T15:53:07.559Z,9.63
2023-11-07T15:55:38.307Z,9.62
2023-11-07T15:58:06.716Z,9.54
2023-11-07T16:00:35.448Z,9.60
2023-11-07T16:03:06.313Z,9.60
2023-11-07T16:05:36.651Z,9.62
2023-11-07T16:08:07.473Z,9.65
2023-11-07T16:10:36.156Z,9.51
2023-11-07T16:13:04.776Z,9.58
2023-11-07T16:15:33.695Z,9.50
2023-11-07T16:18:01.750Z,9.51
2023-11-07T16:20:30.877Z,9.50
2023-11-07T16:22:58.569Z,9.42
2023-11-07T16:25:26.385Z,9.31
2023-11-07T16:27:54.861Z,9.26
2023-11-07T16:30:22.962Z,9.24
2023-11-07T16:32:50.975Z,9.31
2023-11-07T16:35:18.816Z,9.22
2023-11-07T16:37:49.447Z,9.29
2023-11-07T16:40:18.763Z,9.36
2023-11-07T16:42:48.235Z,9.33
2023-11-07T16:45:16.605Z,9.35
2023-11-07T16:47:44.882Z,9.36
2023-11-07T16:50:14.029Z,9.37
2023-11-07T16:52:41.956Z,9.29
2023-11-07T16:55:14.623Z,9.31
2023-11-07T16:57:43.598Z,9.31
2023-11-07T17:00:12.934Z,9.20
2023-11-07T17:02:42.025Z,9.21
2023-11-07T17:05:10.543Z,9.21
2023-11-07T17:07:38.336Z,9.08
2023-11-07T17:10:07.901Z,9.14
2023-11-07T17:12:37.716Z,8.99
2023-11-07T17:15:08.162Z,9.00
2023-11-07T17:17:35.954Z,8.91
2023-11-07T17:20:06.717Z,8.94
2023-11-07T17:22:35.983Z,8.89
2023-11-07T17:25:05.625Z,8.74
2023-11-07T17:27:33.900Z,8.75
2023-11-07T17:30:03.155Z,8.75
2023-11-07T17:32:31.015Z,8.76
2023-11-07T17:35:04.429Z,8.79
2023-11-07T17:37:32.134Z,8.77
2023-11-07T17:40:00.356Z,8.73
2023-11-07T17:42:28.191Z,8.68
2023-11-07T17:44:56.027Z,8.71
2023-11-07T17:47:26.706Z,8.69
2023-11-07T17:49:54.554Z,8.59
2023-11-07T17:52:22.262Z,8.55
2023-11-07T17:54:50.917Z,8.54
2023-11-07T17:57:19.451Z,8.52
2023-11-07T17:59:52.785Z,8.45
2023-11-07T18:02:21.472Z,8.48
2023-11-07T18:04:51.395Z,8.42
2023-11-07T18:07:19.802Z,8.15
2023-11-07T18:09:49.885Z,8.38
2023-11-07T18:12:18.997Z,8.46
2023-11-07T18:14:46.782Z,8.37
2023-11-07T18:17:14.449Z,8.36
2023-11-07T18:19:42.187Z,8.39
2023-11-07T18:22:11.415Z,8.34
2023-11-07T18:24:39.204Z,8.39
2023-11-07T18:27:07.360Z,8.32
2023-11-07T18:29:35.411Z,8.32
2023-11-07T18:32:07.637Z,8.32
2023-11-07T18:34:35.462Z,8.30
2023-11-07T18:37:05.053Z,7.80
2023-11-07T18:39:36.823Z,8.28
2023-11-07T18:42:05.540Z,8.29
2023-11-07T18:44:35.668Z,8.25
2023-11-07T18:47:04.099Z,8.20
2023-11-07T18:49:32.699Z,8.27
2023-11-07T18:52:00.636Z,8.21
2023-11-07T18:54:29.072Z,8.24
2023-11-07T18:56:59.240Z,8.17
2023-11-07T18:59:34.323Z,8.26
2023-11-07T19:02:06.101Z,8.21
2023-11-07T19:04:34.203Z,8.23
2023-11-07T19:07:01.965Z,8.22
2023-11-07T19:09:29.807Z,8.21
2023-11-07T19:12:02.117Z,8.26
2023-11-07T19:14:30.205Z,8.24
2023-11-07T19:16:58.013Z,8.26
2023-11-07T19:19:28.166Z,8.19
2023-11-07T19:21:57.014Z,8.16
2023-11-07T19:24:24.871Z,8.16
2023-11-07T19:26:52.859Z,8.19
2023-11-07T19:29:21.991Z,7.94
2023-11-07T19:31:50.524Z,8.16
2023-11-07T19:34:20.568Z,8.15
2023-11-07T19:36:49.732Z,7.82
2023-11-07T19:39:18.615Z,8.08
2023-11-07T19:41:47.142Z,8.03
2023-11-07T19:44:16.668Z,8.05
2023-11-07T19:46:45.915Z,7.94
2023-11-07T19:49:13.721Z,7.93
2023-11-07T19:51:42.120Z,7.75
2023-11-07T19:54:10.164Z,7.95
2023-11-07T19:56:38.872Z,8.00
2023-11-07T19:59:08.308Z,7.93
2023-11-07T20:01:36.656Z,7.87
2023-11-07T20:04:06.172Z,7.88
2023-11-07T20:06:34.047Z,7.91
2023-11-07T20:09:01.832Z,7.86
2023-11-07T20:11:30.345Z,7.85
2023-11-07T20:13:58.258Z,7.81
2023-11-07T20:16:25.979Z,7.81
2023-11-07T20:18:54.377Z,7.84
2023-11-07T20:21:23.543Z,7.82
2023-11-07T20:23:51.464Z,7.74
2023-11-07T20:26:19.765Z,7.74
2023-11-07T20:28:50.578Z,7.75
2023-11-07T20:31:18.645Z,7.78
2023-11-07T20:36:16.624Z,7.79
2023-11-07T20:38:46.418Z,7.76
2023-11-07T20:41:16.750Z,7.72
2023-11-07T20:43:44.447Z,7.72
2023-11-07T20:46:27.241Z,7.43
2023-11-07T20:49:02.624Z,7.70
2023-11-07T20:51:32.392Z,7.67
2023-11-07T20:54:01.774Z,7.65
2023-11-07T20:56:30.692Z,7.65
2023-11-07T20:58:58.851Z,7.66
2023-11-07T21:01:27.878Z,7.65
2023-11-07T21:03:57.385Z,7.68
2023-11-07T21:06:25.834Z,7.54
2023-11-07T21:08:54.291Z,7.67
2023-11-07T21:11:23.358Z,7.69
2023-11-07T21:13:52.353Z,7.67
2023-11-07T21:16:20.123Z,7.65
2023-11-07T21:18:49.049Z,7.69
2023-11-07T21:21:17.686Z,7.63
2023-11-07T21:23:45.552Z,7.64
2023-11-07T21:26:14.515Z,7.62
2023-11-07T21:28:43.617Z,7.61
2023-11-07T21:31:11.363Z,7.61
2023-11-07T21:33:39.913Z,7.64
2023-11-07T21:36:08.002Z,7.60
2023-11-07T21:38:35.863Z,7.58
2023-11-07T21:41:03.588Z,7.58
2023-11-07T21:43:31.317Z,7.55
2023-11-07T21:46:01.388Z,7.62
2023-11-07T21:48:30.004Z,7.58
2023-11-07T21:50:57.815Z,7.64
2023-11-07T21:53:25.954Z,7.66
2023-11-07T21:55:54.540Z,7.69
2023-11-07T21:58:22.553Z,7.73
2023-11-07T22:00:50.215Z,7.76
2023-11-07T22:03:19.863Z,7.81
2023-11-07T22:05:47.589Z,7.83
2023-11-07T22:08:15.340Z,7.86
2023-11-07T22:10:43.052Z,7.86
2023-11-07T22:13:10.757Z,7.87
2023-11-07T22:15:38.768Z,7.88
2023-11-07T22:18:06.729Z,7.89
2023-11-07T22:20:38.202Z,7.87
2023-11-07T22:23:06.086Z,7.86
2023-11-07T22:25:33.814Z,7.87
2023-11-07T22:28:01.526Z,7.91
2023-11-07T22:30:29.204Z,7.91
2023-11-07T22:32:56.929Z,7.94
2023-11-07T22:35:24.644Z,7.90
2023-11-07T22:37:54.163Z,7.89
2023-11-07T22:40:22.659Z,7.94
2023-11-07T22:42:50.487Z,7.91
2023-11-07T22:45:19.284Z,7.94
2023-11-07T22:47:47.356Z,7.99
2023-11-07T22:50:15.085Z,7.93
2023-11-07T22:52:43.173Z,7.94
2023-11-07T22:55:12.989Z,7.97
2023-11-07T22:57:40.810Z,7.99
2023-11-07T23:00:11.892Z,7.92
2023-11-07T23:02:40.581Z,7.97
2023-11-07T23:05:09.032Z,7.97
2023-11-07T23:07:36.695Z,7.97
2023-11-07T23:10:05.082Z,7.97
2023-11-07T23:12:34.196Z,7.98
2023-11-07T23:15:01.932Z,8.00
2023-11-07T23:17:29.774Z,8.00
2023-11-07T23:19:57.467Z,8.04
2023-11-07T23:22:25.150Z,8.00
2023-11-07T23:24:53.642Z,8.02
2023-11-07T23:27:21.394Z,8.01
2023-11-07T23:29:55.472Z,8.07
2023-11-07T23:32:23.166Z,8.03
2023-11-07T23:34:51.038Z,8.08
2023-11-07T23:37:21.669Z,8.10
2023-11-07T23:39:49.683Z,8.11
2023-11-07T23:42:18.258Z,7.89
2023-11-07T23:44:45.968Z,8.09
2023-11-07T23:47:15.340Z,8.13
2023-11-07T23:49:42.032Z,8.11
2023-11-07T23:52:11.920Z,8.13
2023-11-07T23:54:39.656Z,8.16
2023-11-07T23:57:07.468Z,8.16
2023-11-07T23:59:35.590Z,8.22
